
Distance (Route):
Temperature : -21.6°C
Humidity : 14.5%
Pressure : 0hPa| Receiver | Date | Latitude | Longitude | Direction | Speed | Altitude | Climb | Temperature | Humidity | Pressure | Voltage | Killtimer | Uptime | BKT | XDATA |
|---|---|---|---|---|---|---|---|---|---|---|---|---|---|---|---|
| LZ4TU-5 | 2026-09-02 06:56:51 | 43.34416 | 20.77276 | 83° | 73km/h | 7559m | -16.0m/s | -21.6°C | 14.5% | 0hPa | 0V | 00:00:00 | 00:00:00 | 00:00:00 | |
| LZ4TU-5 | 2026-09-02 06:56:46 | 43.34403 | 20.77152 | 83° | 73km/h | 7637m | -15.1m/s | -22.1°C | 15.8% | 0hPa | 0V | 00:00:00 | 00:00:00 | 00:00:00 | |
| LZ4TU-5 | 2026-09-02 06:55:21 | 43.34336 | 20.75038 | 89° | 69km/h | 8943m | -15.4m/s | -32.1°C | 23.3% | 0hPa | 0V | 00:00:00 | 00:00:00 | 00:00:00 | |
| LZ4TU-5 | 2026-09-02 06:55:16 | 43.34333 | 20.74916 | 89° | 71km/h | 9021m | -14.8m/s | -32.6°C | 21.6% | 0hPa | 0V | 00:00:00 | 00:00:00 | 00:00:00 | |
| LZ4TU-5 | 2026-09-02 06:53:49 | 43.34160 | 20.72548 | 80° | 84km/h | 10434m | -17.7m/s | -43.7°C | 23.1% | 0hPa | 0V | 00:00:00 | 00:00:00 | 00:00:00 | |
| LZ4TU-5 | 2026-09-02 06:53:44 | 43.34140 | 20.72404 | 79° | 84km/h | 10525m | -18.3m/s | -44.5°C | 23.1% | 0hPa | 0V | 00:00:00 | 00:00:00 | 00:00:00 | |
| OM5KV | 2026-09-02 06:43:48 | 43.32811 | 20.63985 | 191° | 24km/h | 31002m | -47.4m/s | -40.1°C | 0.0% | 0hPa | 0V | 00:00:00 | 00:00:00 | 00:00:00 | |
| OM5KV | 2026-09-02 06:43:46 | 43.32821 | 20.63989 | 207° | 18km/h | 31093m | -41.7m/s | -40.4°C | 0.0% | 0hPa | 0V | 00:00:00 | 00:00:00 | 00:00:00 | |
| OM5KV | 2026-09-02 06:43:41 | 43.32822 | 20.63995 | 154° | 16km/h | 31305m | -38.2m/s | -40.1°C | 0.0% | 0hPa | 0V | 00:00:00 | 00:00:00 | 00:00:00 | |
| OM5KV | 2026-09-02 06:43:28 | 43.32886 | 20.64016 | 11° | 16km/h | 31327m | 5.1m/s | -39.9°C | 0.0% | 0hPa | 0V | 00:00:00 | 00:00:00 | 00:00:00 | |
| LZ4TU-5 | 2026-09-02 06:32:48 | 43.32825 | 20.66753 | 264° | 18km/h | 27002m | 8.6m/s | -45.7°C | 0.0% | 0hPa | 0V | 00:00:00 | 00:00:00 | 00:00:00 | |
| LZ4TU-5 | 2026-09-02 06:32:43 | 43.32832 | 20.66764 | 211° | 16km/h | 26978m | 6.8m/s | -45.7°C | 0.0% | 0hPa | 0V | 00:00:00 | 00:00:00 | 00:00:00 | |
| LZ4TU-5 | 2026-09-02 06:30:51 | 43.32878 | 20.66825 | 37° | 18km/h | 26244m | 5.7m/s | -47.9°C | 0.0% | 0hPa | 0V | 00:00:00 | 00:00:00 | 00:00:00 | |
| LZ4TU-5 | 2026-09-02 06:30:47 | 43.32869 | 20.66829 | 278° | 11km/h | 26217m | 7.9m/s | -48.0°C | 0.0% | 0hPa | 0V | 00:00:00 | 00:00:00 | 00:00:00 | |
| LZ4TU-5 | 2026-09-02 06:29:06 | 43.32846 | 20.67197 | 128° | 9km/h | 25561m | 7.0m/s | -48.9°C | 0.0% | 0hPa | 0V | 00:00:00 | 00:00:00 | 00:00:00 | |
| LZ4TU-5 | 2026-09-02 06:29:02 | 43.32866 | 20.67200 | 225° | 15km/h | 25526m | 6.7m/s | -48.9°C | 0.0% | 0hPa | 0V | 00:00:00 | 00:00:00 | 00:00:00 | |
| LZ4TU-5 | 2026-09-02 06:27:15 | 43.33264 | 20.67020 | 71° | 9km/h | 24839m | 7.0m/s | -50.2°C | 0.0% | 0hPa | 0V | 00:00:00 | 00:00:00 | 00:00:00 | |
| LZ4TU-5 | 2026-09-02 06:27:10 | 43.33267 | 20.67005 | 161° | 18km/h | 24806m | 8.0m/s | -50.1°C | 0% | 0hPa | 0V | 00:00:00 | 00:00:00 | 00:00:00 | |
| LZ4TU-5 | 2026-09-02 06:25:46 | 43.33421 | 20.67180 | 145° | 11km/h | 24277m | 7.5m/s | -51.2°C | 0.0% | 0hPa | 0V | 00:00:00 | 00:00:00 | 00:00:00 | |
| LZ4TU-5 | 2026-09-02 06:25:41 | 43.33431 | 20.67181 | 216° | 22km/h | 24244m | 7.8m/s | -51.4°C | 0.0% | 0hPa | 0V | 00:00:00 | 00:00:00 | 00:00:00 | |
| LZ4TU-5 | 2026-09-02 06:24:15 | 43.33588 | 20.67398 | 297° | 2km/h | 23721m | 6.8m/s | -52.3°C | 0.0% | 0hPa | 0V | 00:00:00 | 00:00:00 | 00:00:00 | |
| LZ4TU-5 | 2026-09-02 06:24:10 | 43.33590 | 20.67399 | 187° | 5km/h | 23691m | 6.6m/s | -52.2°C | 0.0% | 0hPa | 0V | 00:00:00 | 00:00:00 | 00:00:00 | |
| LZ4TU-5 | 2026-09-02 06:22:37 | 43.33409 | 20.67492 | 347° | 16km/h | 23121m | 5.2m/s | -53.6°C | 0.0% | 0hPa | 0V | 00:00:00 | 00:00:00 | 00:00:00 | |
| LZ4TU-5 | 2026-09-02 06:22:32 | 43.33408 | 20.67493 | 0° | 0km/h | 23091m | 4.2m/s | -53.6°C | 0.0% | 0hPa | 0V | 00:00:00 | 00:00:00 | 00:00:00 | |
| LZ4TU-5 | 2026-09-02 06:21:13 | 43.33287 | 20.67749 | 276° | 11km/h | 22608m | 7.9m/s | -53.9°C | 0.0% | 0hPa | 0V | 00:00:00 | 00:00:00 | 00:00:00 | |
| LZ4TU-5 | 2026-09-02 06:19:44 | 43.33118 | 20.68023 | 296° | 11km/h | 22054m | 7.0m/s | -53.9°C | 0.0% | 0hPa | 0V | 00:00:00 | 00:00:00 | 00:00:00 | |
| LZ4TU-5 | 2026-09-02 06:19:40 | 43.33118 | 20.68048 | 276° | 24km/h | 22030m | 5.4m/s | -53.9°C | 0.0% | 0hPa | 0V | 00:00:00 | 00:00:00 | 00:00:00 | |
| LZ4TU-5 | 2026-09-02 06:18:13 | 43.33370 | 20.68363 | 136° | 20km/h | 21492m | 5.5m/s | -53.3°C | 0.0% | 0hPa | 0V | 00:00:00 | 00:00:00 | 00:00:00 | |
| LZ4TU-5 | 2026-09-02 06:18:08 | 43.33399 | 20.68342 | 162° | 22km/h | 21462m | 6.2m/s | -53.4°C | 0.0% | 0hPa | 0V | 00:00:00 | 00:00:00 | 00:00:00 | |
| LZ4TU-5 | 2026-09-02 06:16:43 | 43.33570 | 20.67862 | 117° | 35km/h | 20962m | 6.9m/s | -55.0°C | 0.0% | 0hPa | 0V | 00:00:00 | 00:00:00 | 00:00:00 | |
| LZ4TU-5 | 2026-09-02 06:16:38 | 43.33594 | 20.67819 | 136° | 31km/h | 20934m | 5.0m/s | -55.2°C | 0.0% | 0hPa | 0V | 00:00:00 | 00:00:00 | 00:00:00 | |
| LZ4TU-5 | 2026-09-02 06:15:10 | 43.33538 | 20.67105 | 79° | 16km/h | 20436m | 6.1m/s | -55.5°C | 0.0% | 0hPa | 0V | 00:00:00 | 00:00:00 | 00:00:00 | |
| LZ4TU-5 | 2026-09-02 06:15:05 | 43.33540 | 20.67063 | 84° | 35km/h | 20408m | 6.7m/s | -55.5°C | 0.0% | 0hPa | 0V | 00:00:00 | 00:00:00 | 00:00:00 | |
| LZ4TU-5 | 2026-09-02 06:13:32 | 43.33393 | 20.66202 | 28° | 31km/h | 19875m | 5.7m/s | -56.4°C | 0.0% | 0hPa | 0V | 00:00:00 | 00:00:00 | 00:00:00 | |
| LZ4TU-5 | 2026-09-02 06:13:27 | 43.33361 | 20.66183 | 23° | 24km/h | 19846m | 6.3m/s | -56.4°C | 0.0% | 0hPa | 0V | 00:00:00 | 00:00:00 | 00:00:00 | |
| LZ4TU-5 | 2026-09-02 06:12:07 | 43.33221 | 20.65713 | 89° | 24km/h | 19373m | 6.1m/s | -58.3°C | 0.0% | 0hPa | 0V | 00:00:00 | 00:00:00 | 00:00:00 | |
| LZ4TU-5 | 2026-09-02 06:12:02 | 43.33232 | 20.65677 | 122° | 27km/h | 19347m | 6.3m/s | -58.6°C | 0.0% | 0hPa | 0V | 00:00:00 | 00:00:00 | 00:00:00 | |
| LZ4TU-5 | 2026-09-02 06:10:38 | 43.33016 | 20.64638 | 16° | 27km/h | 18871m | 7.4m/s | -59.0°C | 0.0% | 0hPa | 0V | 00:00:00 | 00:00:00 | 00:00:00 | |
| LZ4TU-5 | 2026-09-02 06:10:33 | 43.32991 | 20.64627 | 43° | 20km/h | 18840m | 6.5m/s | -59.0°C | 0.0% | 0hPa | 0V | 00:00:00 | 00:00:00 | 00:00:00 | |
| LZ4TU-5 | 2026-09-02 06:09:02 | 43.32832 | 20.64430 | 136° | 18km/h | 18322m | 5.2m/s | -56.5°C | 0.0% | 0hPa | 0V | 00:00:00 | 00:00:00 | 00:00:00 | |
| LZ4TU-5 | 2026-09-02 06:08:57 | 43.32849 | 20.64405 | 120° | 24km/h | 18293m | 5.4m/s | -56.7°C | 0.0% | 0hPa | 0V | 00:00:00 | 00:00:00 | 00:00:00 | |
| LZ4TU-5 | 2026-09-02 06:07:30 | 43.32886 | 20.63223 | 87° | 38km/h | 17802m | 5.3m/s | -56.8°C | 0.0% | 0hPa | 0V | 00:00:00 | 00:00:00 | 00:00:00 | |
| LZ4TU-5 | 2026-09-02 06:07:25 | 43.32879 | 20.63154 | 72° | 38km/h | 17773m | 6.2m/s | -56.7°C | 0.0% | 0hPa | 0V | 00:00:00 | 00:00:00 | 00:00:00 | |
| LZ4TU-5 | 2026-09-02 06:06:01 | 43.32559 | 20.62547 | 63° | 20km/h | 17316m | 6.2m/s | -55.8°C | 0.0% | 0hPa | 0V | 00:00:00 | 00:00:00 | 00:00:00 | |
| LZ4TU-5 | 2026-09-02 06:05:55 | 43.32553 | 20.62507 | 328° | 7km/h | 17279m | 6.4m/s | -55.9°C | 0.0% | 0hPa | 0V | 00:00:00 | 00:00:00 | 00:00:00 | |
| LZ4TU-5 | 2026-09-02 06:04:37 | 43.32849 | 20.61620 | 112° | 49km/h | 16867m | 5.8m/s | -59.3°C | 0.0% | 0hPa | 0V | 00:00:00 | 00:00:00 | 00:00:00 | |
| LZ4TU-5 | 2026-09-02 06:04:32 | 43.32871 | 20.61529 | 101° | 62km/h | 16842m | 5.3m/s | -59.2°C | 0.0% | 0hPa | 0V | 00:00:00 | 00:00:00 | 00:00:00 | |
| LZ4TU-5 | 2026-09-02 06:03:10 | 43.32616 | 20.59847 | 65° | 66km/h | 16430m | 5.3m/s | -59.0°C | 0.7% | 0hPa | 0V | 00:00:00 | 00:00:00 | 00:00:00 | |
| LZ4TU-5 | 2026-09-02 06:03:05 | 43.32581 | 20.59745 | 63° | 58km/h | 16406m | 5.5m/s | -58.9°C | 0.8% | 0hPa | 0V | 00:00:00 | 00:00:00 | 00:00:00 | |
| LZ4TU-5 | 2026-09-02 06:01:25 | 43.32264 | 20.57962 | 93° | 77km/h | 15874m | 4.8m/s | -58.0°C | 1.2% | 0hPa | 0V | 00:00:00 | 00:00:00 | 00:00:00 | |
| LZ4TU-5 | 2026-09-02 06:01:20 | 43.32257 | 20.57861 | 70° | 57km/h | 15845m | 7.0m/s | -57.9°C | 1.3% | 0hPa | 0V | 00:00:00 | 00:00:00 | 00:00:00 | |
| LZ4TU-5 | 2026-09-02 05:59:57 | 43.31959 | 20.56052 | 100° | 62km/h | 15387m | 5.2m/s | -57.6°C | 1.9% | 0hPa | 0V | 00:00:00 | 00:00:00 | 00:00:00 | |
| LZ4TU-5 | 2026-09-02 05:59:52 | 43.31961 | 20.55933 | 84° | 82km/h | 15363m | 5.4m/s | -57.7°C | 1.9% | 0hPa | 0V | 00:00:00 | 00:00:00 | 00:00:00 | |
| LZ4TU-5 | 2026-09-02 05:58:33 | 43.31890 | 20.53594 | 85° | 88km/h | 14959m | 6.4m/s | -58.7°C | 3.2% | 0hPa | 0V | 00:00:00 | 00:00:00 | 00:00:00 | |
| LZ4TU-5 | 2026-09-02 05:58:28 | 43.31880 | 20.53437 | 92° | 82km/h | 14929m | 4.7m/s | -58.6°C | 3.2% | 0hPa | 0V | 00:00:00 | 00:00:00 | 00:00:00 | |
| LZ4TU-5 | 2026-09-02 05:57:08 | 43.31837 | 20.50931 | 84° | 93km/h | 14490m | 5.6m/s | -58.2°C | 6.6% | 0hPa | 0V | 00:00:00 | 00:00:00 | 00:00:00 | |
| LZ4TU-5 | 2026-09-02 05:57:04 | 43.31824 | 20.50804 | 85° | 97km/h | 14469m | 5.6m/s | -57.9°C | 6.6% | 0hPa | 0V | 00:00:00 | 00:00:00 | 00:00:00 | |
| LZ4TU-5 | 2026-09-02 05:55:32 | 43.31582 | 20.47870 | 83° | 99km/h | 13999m | 5.6m/s | -60.2°C | 11.7% | 0hPa | 0V | 00:00:00 | 00:00:00 | 00:00:00 | |
| LZ4TU-5 | 2026-09-02 05:55:27 | 43.31574 | 20.47718 | 82° | 82km/h | 13969m | 5.2m/s | -61.2°C | 12.1% | 0hPa | 0V | 00:00:00 | 00:00:00 | 00:00:00 | |
| LZ4TU-5 | 2026-09-02 05:53:50 | 43.31103 | 20.44358 | 89° | 97km/h | 13384m | 7.2m/s | -59.0°C | 13.1% | 0hPa | 0V | 00:00:00 | 00:00:00 | 00:00:00 | |
| LZ4TU-5 | 2026-09-02 05:53:45 | 43.31080 | 20.44194 | 73° | 102km/h | 13355m | 4.8m/s | -59.0°C | 13.4% | 0hPa | 0V | 00:00:00 | 00:00:00 | 00:00:00 | |
| LZ4TU-5 | 2026-09-02 05:52:23 | 43.30642 | 20.41378 | 76° | 106km/h | 12889m | 6.1m/s | -57.5°C | 16.8% | 0hPa | 0V | 00:00:00 | 00:00:00 | 00:00:00 | |
| LZ4TU-5 | 2026-09-02 05:50:43 | 43.29884 | 20.38088 | 75° | 93km/h | 12371m | 5.1m/s | -55.8°C | 18.1% | 0hPa | 0V | 00:00:00 | 00:00:00 | 00:00:00 | |
| LZ4TU-5 | 2026-09-02 05:50:39 | 43.29856 | 20.37969 | 72° | 91km/h | 12347m | 6.3m/s | -55.7°C | 18.1% | 0hPa | 0V | 00:00:00 | 00:00:00 | 00:00:00 | |
| LZ4TU-5 | 2026-09-02 05:50:34 | 43.29817 | 20.37815 | 72° | 97km/h | 12324m | 5.3m/s | -55.7°C | 17.9% | 0hPa | 0V | 00:00:00 | 00:00:00 | 00:00:00 | |
| LZ4TU-5 | 2026-09-02 05:50:29 | 43.29784 | 20.37664 | 74° | 84km/h | 12301m | 4.6m/s | -55.6°C | 17.6% | 0hPa | 0V | 00:00:00 | 00:00:00 | 00:00:00 | |
| LZ4TU-5 | 2026-09-02 05:48:28 | 43.29079 | 20.33775 | 68° | 99km/h | 11685m | 4.3m/s | -50.9°C | 15.7% | 0hPa | 0V | 00:00:00 | 00:00:00 | 00:00:00 | |
| LZ4TU-5 | 2026-09-02 05:48:23 | 43.29063 | 20.33636 | 94° | 104km/h | 11665m | 5.7m/s | -50.8°C | 15.7% | 0hPa | 0V | 00:00:00 | 00:00:00 | 00:00:00 | |
| LZ4TU-5 | 2026-09-02 05:46:23 | 43.28587 | 20.29834 | 72° | 78km/h | 10999m | 4.8m/s | -46.7°C | 15.9% | 0hPa | 0V | 00:00:00 | 00:00:00 | 00:00:00 | |
| LZ4TU-5 | 2026-09-02 05:46:18 | 43.28548 | 20.29684 | 76° | 91km/h | 10974m | 3.8m/s | -46.4°C | 15.8% | 0hPa | 0V | 00:00:00 | 00:00:00 | 00:00:00 | |
| LZ4TU-5 | 2026-09-02 05:44:20 | 43.28083 | 20.26216 | 83° | 89km/h | 10333m | 5.4m/s | -42.8°C | 18.2% | 0hPa | 0V | 00:00:00 | 00:00:00 | 00:00:00 | |
| LZ4TU-5 | 2026-09-02 05:44:15 | 43.28063 | 20.26070 | 87° | 86km/h | 10306m | 4.6m/s | -42.6°C | 17.7% | 0hPa | 0V | 00:00:00 | 00:00:00 | 00:00:00 | |
| LZ4TU-5 | 2026-09-02 05:42:46 | 43.27838 | 20.23360 | 84° | 78km/h | 9846m | 5.5m/s | -38.8°C | 14.4% | 0hPa | 0V | 00:00:00 | 00:00:00 | 00:00:00 | |
| LZ4TU-5 | 2026-09-02 05:42:41 | 43.27821 | 20.23214 | 85° | 82km/h | 9822m | 5.1m/s | -38.6°C | 14.2% | 0hPa | 0V | 00:00:00 | 00:00:00 | 00:00:00 |